createdAt,value
2022-11-14T00:01:32.855Z,101082.03
2022-11-14T00:03:59.311Z,101081.47
2022-11-14T00:06:25.785Z,101071.19
2022-11-14T00:08:52.210Z,101082.31
2022-11-14T00:11:18.643Z,101067.06
2022-11-14T00:13:45.251Z,101071.19
2022-11-14T00:16:11.693Z,101064.47
2022-11-14T00:18:38.151Z,101066.66
2022-11-14T00:21:04.622Z,101059.25
2022-11-14T00:23:31.071Z,101061.13
2022-11-14T00:25:57.548Z,101062.53
2022-11-14T00:28:24.016Z,101044.22
2022-11-14T00:30:50.472Z,101039.63
2022-11-14T00:33:20.681Z,101058.72
2022-11-14T00:35:55.182Z,101046.53
2022-11-14T00:38:22.194Z,101055.06
2022-11-14T00:40:48.767Z,101060.31
2022-11-14T00:43:15.262Z,101061.31
2022-11-14T00:45:44.326Z,101056.28
2022-11-14T00:48:10.779Z,101048.44
2022-11-14T00:50:38.038Z,101043.34
2022-11-14T00:53:04.717Z,101048.59
2022-11-14T00:55:31.477Z,101044.38
2022-11-14T00:57:57.935Z,101041.25
2022-11-14T01:00:24.490Z,101037.97
2022-11-14T01:02:51.030Z,101030.41
2022-11-14T01:05:17.500Z,101042.66
2022-11-14T01:07:43.952Z,101036.84
2022-11-14T01:10:10.418Z,101038.81
2022-11-14T01:12:36.895Z,101027.81
2022-11-14T01:15:03.601Z,101026.31
2022-11-14T01:17:30.067Z,101024.75
2022-11-14T01:19:56.562Z,101021.34
2022-11-14T01:22:23.007Z,101013.59
2022-11-14T01:24:49.465Z,101010.78
2022-11-14T01:27:15.973Z,101000.44
2022-11-14T01:29:42.402Z,101007.94
2022-11-14T01:32:08.873Z,101008.59
2022-11-14T01:34:35.392Z,100990.72
2022-11-14T01:37:01.828Z,100978.91
2022-11-14T01:39:28.245Z,100996.53
2022-11-14T01:41:55.774Z,100986.47
2022-11-14T01:44:45.974Z,100987.78
2022-11-14T01:47:16.935Z,100992.22
2022-11-14T01:49:45.539Z,100987.78
2022-11-14T01:52:24.424Z,100975.22
2022-11-14T01:54:54.462Z,100989.25
2022-11-14T01:57:29.562Z,100979.56
2022-11-14T02:00:01.007Z,100983.44
2022-11-14T02:02:27.526Z,100983.91
2022-11-14T02:04:59.372Z,100978.28
2022-11-14T02:07:29.047Z,100972.59
2022-11-14T02:09:55.866Z,100976.56
2022-11-14T02:12:23.035Z,100984.66
2022-11-14T02:14:52.630Z,100976.66
2022-11-14T02:17:29.566Z,100976.44
2022-11-14T02:20:05.428Z,100971.00
2022-11-14T02:22:32.431Z,100965.84
2022-11-14T02:24:58.893Z,100964.84
2022-11-14T02:27:25.457Z,100968.50
2022-11-14T02:29:51.954Z,100966.47
2022-11-14T02:32:18.918Z,100966.28
2022-11-14T02:34:45.399Z,100961.78
2022-11-14T02:37:11.825Z,100957.44
2022-11-14T02:39:39.006Z,100956.53
2022-11-14T02:42:05.672Z,100950.69
2022-11-14T02:44:32.200Z,100949.31
2022-11-14T02:46:58.632Z,100955.47
2022-11-14T02:49:25.147Z,100949.78
2022-11-14T02:51:51.779Z,100943.28
2022-11-14T02:54:18.223Z,100940.19
2022-11-14T02:56:44.649Z,100932.94
2022-11-14T02:59:11.116Z,100939.25
2022-11-14T03:01:37.545Z,100937.06
2022-11-14T03:04:04.388Z,100929.59
2022-11-14T03:06:30.961Z,100932.63
2022-11-14T03:08:57.404Z,100936.66
2022-11-14T03:11:23.831Z,100934.63
2022-11-14T03:13:50.322Z,100930.75
2022-11-14T03:16:17.125Z,100912.63
2022-11-14T03:18:43.647Z,100915.44
2022-11-14T03:21:19.152Z,100927.81
2022-11-14T03:23:45.922Z,100911.84
2022-11-14T03:26:14.194Z,100904.41
2022-11-14T03:28:41.499Z,100908.53
2022-11-14T03:31:09.391Z,100907.28
2022-11-14T03:33:36.152Z,100913.81
2022-11-14T03:36:03.518Z,100901.28
2022-11-14T03:38:30.560Z,100903.50
2022-11-14T03:40:59.470Z,100899.81
2022-11-14T03:43:26.824Z,100897.97
2022-11-14T03:45:53.339Z,100899.50
2022-11-14T03:48:19.792Z,100895.13
2022-11-14T03:50:46.263Z,100897.38
2022-11-14T03:53:12.726Z,100890.59
2022-11-14T03:55:40.141Z,100897.47
2022-11-14T03:58:06.700Z,100893.94
2022-11-14T04:00:33.196Z,100891.47
2022-11-14T04:02:59.721Z,100882.28
2022-11-14T04:05:26.188Z,100888.28
2022-11-14T04:07:52.634Z,100853.06
2022-11-14T04:10:19.393Z,100875.66
2022-11-14T04:12:50.655Z,100874.06
2022-11-14T04:15:18.280Z,100845.28
2022-11-14T04:17:45.269Z,100867.38
2022-11-14T04:20:12.975Z,100872.53
2022-11-14T04:22:39.893Z,100866.44
2022-11-14T04:25:08.059Z,100871.47
2022-11-14T04:27:34.742Z,100849.56
2022-11-14T04:30:01.220Z,100868.97
2022-11-14T04:32:27.728Z,100874.38
2022-11-14T04:34:54.164Z,100873.72
2022-11-14T04:37:20.642Z,100880.66
2022-11-14T04:39:47.113Z,100881.72
2022-11-14T04:42:13.588Z,100878.47
2022-11-14T04:44:40.090Z,100882.06
2022-11-14T04:47:06.592Z,100862.25
2022-11-14T04:49:33.111Z,100876.44
2022-11-14T04:51:59.604Z,100871.00
2022-11-14T04:54:26.026Z,100875.94
2022-11-14T04:56:52.508Z,100873.28
2022-11-14T04:59:21.080Z,100868.22
2022-11-14T05:01:47.952Z,100858.78
2022-11-14T05:04:14.804Z,100871.19
2022-11-14T05:06:41.424Z,100870.44
2022-11-14T05:09:08.433Z,100873.69
2022-11-14T05:11:34.936Z,100863.41
2022-11-14T05:14:01.392Z,100867.00
2022-11-14T05:16:27.895Z,100862.41
2022-11-14T05:18:55.059Z,100856.50
2022-11-14T05:21:21.822Z,100860.81
2022-11-14T05:23:48.293Z,100851.47
2022-11-14T05:26:17.436Z,100851.22
2022-11-14T05:28:43.964Z,100846.88
2022-11-14T05:31:13.717Z,100852.31
2022-11-14T05:33:40.293Z,100846.94
2022-11-14T05:36:09.621Z,100825.06
2022-11-14T05:38:36.645Z,100836.69
2022-11-14T05:41:15.109Z,100841.94
2022-11-14T05:43:55.803Z,100830.72
2022-11-14T05:46:22.279Z,100835.34
2022-11-14T05:48:48.707Z,100830.97
2022-11-14T05:51:15.266Z,100825.91
2022-11-14T05:53:42.029Z,100829.25
2022-11-14T05:56:12.201Z,100824.19
2022-11-14T05:58:40.056Z,100824.44
2022-11-14T06:01:15.202Z,100817.53
2022-11-14T06:03:44.186Z,100825.53
2022-11-14T06:06:14.381Z,100821.34
2022-11-14T06:08:41.737Z,100822.09
2022-11-14T06:11:16.932Z,100818.03
2022-11-14T06:13:44.398Z,100813.00
2022-11-14T06:16:21.156Z,100811.09
2022-11-14T06:18:47.772Z,100811.84
2022-11-14T06:21:17.989Z,100817.28
2022-11-14T06:23:45.136Z,100807.66
2022-11-14T06:26:26.239Z,100806.75
2022-11-14T06:28:53.872Z,100814.69
2022-11-14T06:31:22.709Z,100813.16
2022-11-14T06:33:49.782Z,100808.81
2022-11-14T06:36:16.803Z,100820.00
2022-11-14T06:38:44.003Z,100812.16
2022-11-14T06:41:15.871Z,100810.91
2022-11-14T06:43:45.021Z,100802.28
2022-11-14T06:46:13.887Z,100811.38
2022-11-14T06:48:41.060Z,100812.13
2022-11-14T06:51:07.885Z,100817.22
2022-11-14T06:53:36.295Z,100809.69
2022-11-14T06:56:04.484Z,100818.06
2022-11-14T06:58:34.029Z,100818.50
2022-11-14T07:01:05.730Z,100816.50
2022-11-14T07:03:33.117Z,100828.44
2022-11-14T07:06:03.446Z,100830.22
2022-11-14T07:08:30.586Z,100816.84
2022-11-14T07:11:04.464Z,100810.81
2022-11-14T07:13:31.622Z,100823.88
2022-11-14T07:15:58.407Z,100822.72
2022-11-14T07:18:24.968Z,100821.97
2022-11-14T07:20:57.852Z,100821.22
2022-11-14T07:23:24.285Z,100830.03
2022-11-14T07:25:50.813Z,100838.31
2022-11-14T07:28:17.299Z,100824.78
2022-11-14T07:30:44.070Z,100837.63
2022-11-14T07:33:11.232Z,100827.28
2022-11-14T07:35:40.530Z,100819.69
2022-11-14T07:38:07.040Z,100823.63
2022-11-14T07:40:33.495Z,100827.72
2022-11-14T07:43:01.375Z,100819.44
2022-11-14T07:45:28.997Z,100824.19
2022-11-14T07:48:02.144Z,100820.88
2022-11-14T07:50:30.331Z,100827.56
2022-11-14T07:52:57.622Z,100830.59
2022-11-14T07:55:24.975Z,100846.38
2022-11-14T07:57:55.002Z,100832.94
2022-11-14T08:00:21.879Z,100834.09
2022-11-14T08:02:48.399Z,100834.59
2022-11-14T08:05:14.968Z,100840.63
2022-11-14T08:07:41.528Z,100838.63
2022-11-14T08:10:09.183Z,100840.84
2022-11-14T08:12:35.830Z,100839.03
2022-11-14T08:15:02.328Z,100829.31
2022-11-14T08:17:28.796Z,100834.34
2022-11-14T08:19:55.279Z,100829.16
2022-11-14T08:22:21.785Z,100825.72
2022-11-14T08:24:48.226Z,100823.03
2022-11-14T08:27:14.666Z,100825.19
2022-11-14T08:29:41.162Z,100819.59
2022-11-14T08:32:07.717Z,100813.22
2022-11-14T08:34:34.204Z,100811.25
2022-11-14T08:37:01.549Z,100795.38
2022-11-14T08:39:28.257Z,100810.75
2022-11-14T08:41:55.528Z,100796.53
2022-11-14T08:44:22.116Z,100807.72
2022-11-14T08:46:50.026Z,100804.56
2022-11-14T08:49:16.581Z,100799.09
2022-11-14T08:51:43.065Z,100796.91
2022-11-14T08:54:09.613Z,100787.97
2022-11-14T08:56:36.088Z,100787.81
2022-11-14T08:59:05.854Z,100796.66
2022-11-14T09:01:32.825Z,100785.22
2022-11-14T09:04:00.381Z,100786.97
2022-11-14T09:06:27.224Z,100796.31
2022-11-14T09:08:53.911Z,100791.81
2022-11-14T09:11:20.496Z,100786.97
2022-11-14T09:13:46.987Z,100789.28
2022-11-14T09:16:13.439Z,100797.06
2022-11-14T09:18:40.745Z,100791.34
2022-11-14T09:21:08.779Z,100781.13
2022-11-14T09:23:36.033Z,100792.16
2022-11-14T09:26:07.450Z,100791.34
2022-11-14T09:28:34.573Z,100791.53
2022-11-14T09:31:04.992Z,100791.19
2022-11-14T09:33:31.864Z,100791.84
2022-11-14T09:36:07.645Z,100786.75
2022-11-14T09:38:38.536Z,100799.75
2022-11-14T09:41:08.200Z,100801.53
2022-11-14T09:43:34.975Z,100791.91
2022-11-14T09:46:02.913Z,100785.31
2022-11-14T09:48:31.920Z,100773.44
2022-11-14T09:51:16.669Z,100784.13
2022-11-14T09:53:52.173Z,100777.56
2022-11-14T09:56:26.902Z,100775.72
2022-11-14T09:58:55.684Z,100777.00
2022-11-14T10:01:29.513Z,100776.81
2022-11-14T10:04:27.745Z,100775.16
2022-11-14T10:07:07.688Z,100779.34
2022-11-14T10:10:00.054Z,100767.56
2022-11-14T10:12:34.510Z,100759.78
2022-11-14T10:15:09.767Z,100772.47
2022-11-14T10:17:53.005Z,100766.72
2022-11-14T10:20:23.583Z,100754.19
2022-11-14T10:22:49.962Z,100752.16
2022-11-14T10:25:42.647Z,100749.56
2022-11-14T10:28:25.454Z,100749.88
2022-11-14T10:30:59.020Z,100743.34
2022-11-14T10:33:42.142Z,100745.78
2022-11-14T10:36:16.976Z,100756.41
2022-11-14T10:38:54.229Z,100747.16
2022-11-14T10:41:49.935Z,100744.28
2022-11-14T10:44:13.989Z,100741.38
2022-11-14T10:46:47.213Z,100734.31
2022-11-14T10:49:20.952Z,100734.09
2022-11-14T10:51:52.544Z,100727.84
2022-11-14T10:54:44.254Z,100731.81
2022-11-14T10:57:19.598Z,100736.34
2022-11-14T10:59:47.219Z,100744.22
2022-11-14T11:02:14.247Z,100735.41
2022-11-14T11:04:42.839Z,100737.25
2022-11-14T11:07:09.268Z,100741.25
2022-11-14T11:09:56.993Z,100739.00
2022-11-14T11:12:47.690Z,100730.00
2022-11-14T11:15:21.071Z,100733.22
2022-11-14T11:17:59.052Z,100718.72
2022-11-14T11:21:00.796Z,100729.56
2022-11-14T11:23:28.196Z,100712.31
2022-11-14T11:26:09.476Z,100724.44
2022-11-14T11:28:36.938Z,100719.78
2022-11-14T11:31:06.985Z,100716.53
2022-11-14T11:33:35.830Z,100711.06
2022-11-14T11:36:15.850Z,100714.28
2022-11-14T11:38:42.398Z,100708.34
2022-11-14T11:44:18.385Z,100690.94
2022-11-14T11:46:44.784Z,100699.69
2022-11-14T11:49:20.714Z,100681.81
2022-11-14T11:51:47.737Z,100681.63
2022-11-14T11:54:18.473Z,100685.44
2022-11-14T11:56:49.056Z,100677.34
2022-11-14T11:59:53.773Z,100688.78
2022-11-14T12:02:26.170Z,100683.78
2022-11-14T12:04:55.619Z,100681.00
2022-11-14T12:07:30.479Z,100677.84
2022-11-14T12:10:10.132Z,100655.47
2022-11-14T12:12:37.156Z,100671.69
2022-11-14T12:15:21.514Z,100662.47
2022-11-14T12:17:47.911Z,100648.56
2022-11-14T12:20:40.747Z,100630.00
2022-11-14T12:23:25.599Z,100598.84
2022-11-14T12:26:13.535Z,100619.78
2022-11-14T12:28:39.996Z,100617.19
2022-11-14T12:31:13.030Z,100617.66
2022-11-14T12:34:02.325Z,100606.88
2022-11-14T12:36:31.956Z,100606.50
2022-11-14T12:39:00.511Z,100615.19
2022-11-14T12:41:36.279Z,100610.41
2022-11-14T12:44:27.097Z,100611.97
2022-11-14T12:47:05.671Z,100613.25
2022-11-14T12:49:47.477Z,100617.59
2022-11-14T12:52:39.030Z,100614.28
2022-11-14T12:55:25.507Z,100631.25
2022-11-14T12:58:11.727Z,100631.44
2022-11-14T13:01:04.612Z,100636.44
2022-11-14T13:03:55.603Z,100623.84
2022-11-14T13:06:30.618Z,100629.19
2022-11-14T13:09:36.272Z,100619.72
2022-11-14T13:13:00.140Z,100626.81
2022-11-14T13:15:49.131Z,100625.03
2022-11-14T13:18:40.435Z,100623.19
2022-11-14T13:21:42.281Z,100639.97
2022-11-14T13:24:16.380Z,100641.81
2022-11-14T13:26:45.233Z,100639.22
2022-11-14T13:29:39.675Z,100651.28
2022-11-14T13:32:12.407Z,100641.22
2022-11-14T13:34:47.767Z,100633.00
2022-11-14T13:37:36.224Z,100638.91
2022-11-14T13:40:27.274Z,100639.22
2022-11-14T13:43:03.852Z,100633.00
2022-11-14T13:45:55.893Z,100633.22
2022-11-14T13:48:36.461Z,100606.69
2022-11-14T13:51:36.330Z,100614.38
2022-11-14T13:53:56.665Z,100623.63
2022-11-14T13:56:52.171Z,100621.03
2022-11-14T13:59:52.571Z,100629.38
2022-11-14T14:02:35.461Z,100581.63
2022-11-14T14:05:37.375Z,100610.63
2022-11-14T14:08:21.954Z,100613.22
2022-11-14T14:11:03.189Z,100600.22
2022-11-14T14:13:58.031Z,100598.69
2022-11-14T14:16:49.851Z,100596.28
2022-11-14T14:19:47.398Z,100598.78
2022-11-14T14:22:29.742Z,100584.75
2022-11-14T14:25:05.379Z,100591.91
2022-11-14T14:27:51.844Z,100583.97
2022-11-14T14:30:19.227Z,100585.22
2022-11-14T14:33:11.547Z,100586.88
2022-11-14T14:35:41.587Z,100576.94
2022-11-14T14:38:13.268Z,100576.94
2022-11-14T14:40:41.751Z,100572.44
2022-11-14T14:43:24.555Z,100572.97
2022-11-14T14:45:53.303Z,100562.75
2022-11-14T14:48:25.798Z,100565.50
2022-11-14T14:50:58.235Z,100577.94
2022-11-14T14:53:33.619Z,100575.44
2022-11-14T14:56:03.044Z,100571.28
2022-11-14T14:58:33.023Z,100570.88
2022-11-14T15:01:03.683Z,100572.03
2022-11-14T15:03:37.148Z,100556.94
2022-11-14T15:06:06.966Z,100573.28
2022-11-14T15:08:38.752Z,100570.38
2022-11-14T15:11:06.470Z,100559.13
2022-11-14T15:13:35.124Z,100556.09
2022-11-14T15:16:03.357Z,100543.50
2022-11-14T15:18:32.734Z,100550.03
2022-11-14T15:21:27.402Z,100557.75
2022-11-14T15:24:00.225Z,100554.63
2022-11-14T15:26:29.547Z,100556.81
2022-11-14T15:29:20.527Z,100549.09
2022-11-14T15:31:55.880Z,100538.50
2022-11-14T15:34:33.059Z,100553.16
2022-11-14T15:37:09.290Z,100545.38
2022-11-14T15:39:37.012Z,100539.63
2022-11-14T15:42:24.816Z,100544.63
2022-11-14T15:44:51.352Z,100539.94
2022-11-14T15:47:34.568Z,100536.50
2022-11-14T15:50:22.454Z,100532.25
2022-11-14T15:52:54.425Z,100534.44
2022-11-14T15:55:23.030Z,100527.56
2022-11-14T15:58:00.928Z,100538.59
2022-11-14T16:00:37.672Z,100471.38
2022-11-14T16:03:11.222Z,100529.31
2022-11-14T16:05:37.743Z,100527.47
2022-11-14T16:08:04.392Z,100529.94
2022-11-14T16:10:30.878Z,100527.91
2022-11-14T16:12:57.346Z,100526.72
2022-11-14T16:15:23.815Z,100518.44
2022-11-14T16:17:50.749Z,100517.59
2022-11-14T16:20:26.179Z,100530.88
2022-11-14T16:22:55.036Z,100529.84
2022-11-14T16:25:27.075Z,100524.34
2022-11-14T16:27:54.033Z,100523.31
2022-11-14T16:30:22.558Z,100531.59
2022-11-14T16:32:50.548Z,100525.38
2022-11-14T16:35:19.478Z,100498.75
2022-11-14T16:37:46.249Z,100499.69
2022-11-14T16:40:26.809Z,100518.16
2022-11-14T16:42:58.394Z,100521.38
2022-11-14T16:45:26.478Z,100495.63
2022-11-14T16:47:53.504Z,100513.47
2022-11-14T16:50:20.148Z,100531.56
2022-11-14T16:52:46.807Z,100520.13
2022-11-14T16:55:13.557Z,100497.59
2022-11-14T16:57:40.694Z,100522.38
2022-11-14T17:00:10.725Z,100521.44
2022-11-14T17:02:37.386Z,100514.38
2022-11-14T17:05:04.045Z,100530.38
2022-11-14T17:07:33.440Z,100526.00
2022-11-14T17:10:00.457Z,100522.47
2022-11-14T17:12:27.700Z,100504.78
2022-11-14T17:14:54.711Z,100505.81
2022-11-14T17:17:21.453Z,100505.72
2022-11-14T17:19:47.923Z,100526.72
2022-11-14T17:22:16.040Z,100505.72
2022-11-14T17:24:42.534Z,100527.44
2022-11-14T17:27:09.832Z,100524.84
2022-11-14T17:29:36.301Z,100528.59
2022-11-14T17:32:04.130Z,100529.78
2022-11-14T17:34:31.367Z,100531.00
2022-11-14T17:36:58.031Z,100528.38
2022-11-14T17:39:24.518Z,100524.94
2022-11-14T17:41:50.976Z,100526.22
2022-11-14T17:44:17.473Z,100515.91
2022-11-14T17:46:43.886Z,100519.97
2022-11-14T17:49:10.286Z,100522.06
2022-11-14T17:51:36.810Z,100510.84
2022-11-14T17:54:03.469Z,100513.44
2022-11-14T17:56:29.952Z,100508.31
2022-11-14T17:58:56.408Z,100524.38
2022-11-14T18:01:24.756Z,100525.84
2022-11-14T18:03:51.452Z,100519.06
2022-11-14T18:06:20.509Z,100526.97
2022-11-14T18:08:47.532Z,100529.09
2022-11-14T18:11:16.158Z,100525.78
2022-11-14T18:13:42.942Z,100538.19
2022-11-14T18:16:19.666Z,100532.97
2022-11-14T18:18:46.228Z,100529.84
2022-11-14T18:21:17.896Z,100526.63
2022-11-14T18:23:49.721Z,100528.09
2022-11-14T18:26:18.084Z,100526.53
2022-11-14T18:28:44.792Z,100532.56
2022-11-14T18:31:12.053Z,100526.00
2022-11-14T18:33:39.697Z,100525.19
2022-11-14T18:36:10.455Z,100514.19
2022-11-14T18:38:36.989Z,100539.66
2022-11-14T18:41:08.213Z,100537.28
2022-11-14T18:43:35.078Z,100534.88
2022-11-14T18:46:08.754Z,100535.00
2022-11-14T18:48:37.242Z,100529.09
2022-11-14T18:51:06.431Z,100525.97
2022-11-14T18:53:35.100Z,100536.38
2022-11-14T18:56:12.348Z,100522.03
2022-11-14T18:58:40.775Z,100517.75
2022-11-14T19:01:10.658Z,100520.69
2022-11-14T19:03:37.140Z,100527.72
2022-11-14T19:06:05.280Z,100517.97
2022-11-14T19:08:31.804Z,100529.13
2022-11-14T19:11:02.667Z,100520.38
2022-11-14T19:13:29.535Z,100516.94
2022-11-14T19:16:06.409Z,100509.13
2022-11-14T19:18:33.140Z,100516.94
2022-11-14T19:21:01.914Z,100524.81
2022-11-14T19:23:29.157Z,100513.72
2022-11-14T19:26:00.770Z,100508.63
2022-11-14T19:28:29.507Z,100518.19
2022-11-14T19:31:03.368Z,100512.34
2022-11-14T19:33:31.087Z,100504.88
2022-11-14T19:35:58.348Z,100505.28
2022-11-14T19:38:25.072Z,100506.03
2022-11-14T19:40:51.584Z,100509.34
2022-11-14T19:43:18.465Z,100500.38
2022-11-14T19:45:45.040Z,100513.28
2022-11-14T19:48:11.727Z,100515.16
2022-11-14T19:50:38.202Z,100521.38
2022-11-14T19:53:05.047Z,100513.81
2022-11-14T19:55:31.829Z,100515.38
2022-11-14T19:58:01.635Z,100509.00
2022-11-14T20:00:29.357Z,100512.66
2022-11-14T20:02:56.058Z,100515.38
2022-11-14T20:05:22.644Z,100520.56
2022-11-14T20:07:49.142Z,100514.75
2022-11-14T20:10:15.691Z,100517.84
2022-11-14T20:12:45.258Z,100514.31
2022-11-14T20:15:11.767Z,100515.38
2022-11-14T20:17:38.531Z,100522.94
2022-11-14T20:20:05.552Z,100517.84
2022-11-14T20:22:32.284Z,100497.66
2022-11-14T20:24:58.801Z,100516.16
2022-11-14T20:27:25.318Z,100523.34
2022-11-14T20:29:51.843Z,100528.88
2022-11-14T20:32:18.446Z,100532.00
2022-11-14T20:34:44.964Z,100532.50
2022-11-14T20:37:12.190Z,100515.56
2022-11-14T20:39:38.831Z,100469.72
2022-11-14T20:42:05.419Z,100524.94
2022-11-14T20:44:31.973Z,100517.16
2022-11-14T20:46:58.484Z,100510.59
2022-11-14T20:49:25.034Z,100511.56
2022-11-14T20:51:51.541Z,100508.81
2022-11-14T20:54:18.074Z,100503.13
2022-11-14T20:56:44.685Z,100509.44
2022-11-14T20:59:11.275Z,100503.94
2022-11-14T21:01:43.260Z,100502.38
2022-11-14T21:04:10.483Z,100510.38
2022-11-14T21:06:37.075Z,100500.72
2022-11-14T21:09:03.693Z,100512.56
2022-11-14T21:11:30.176Z,100509.75
2022-11-14T21:13:58.594Z,100446.38
2022-11-14T21:16:30.894Z,100508.94
2022-11-14T21:18:58.135Z,100491.25
2022-11-14T21:21:27.261Z,100509.97
2022-11-14T21:23:54.816Z,100497.16
2022-11-14T21:26:25.713Z,100499.03
2022-11-14T21:29:00.951Z,100488.72
2022-11-14T21:31:33.393Z,100490.69
2022-11-14T21:34:05.104Z,100489.66
2022-11-14T21:36:47.506Z,100484.56
2022-11-14T21:39:16.348Z,100502.03
2022-11-14T21:41:44.451Z,100476.03
2022-11-14T21:44:13.524Z,100485.72
2022-11-14T21:46:40.697Z,100488.63
2022-11-14T21:49:07.284Z,100492.47
2022-11-14T21:51:33.783Z,100497.69
2022-11-14T21:54:02.720Z,100489.56
2022-11-14T21:56:31.637Z,100491.31
2022-11-14T21:59:15.164Z,100487.19
2022-11-14T22:02:01.868Z,100445.31
2022-11-14T22:04:28.890Z,100454.44
2022-11-14T22:06:55.612Z,100489.66
2022-11-14T22:09:22.245Z,100464.09
2022-11-14T22:11:49.135Z,100473.09
2022-11-14T22:14:15.562Z,100482.16
2022-11-14T22:16:42.079Z,100491.28
2022-11-14T22:19:08.612Z,100456.16
2022-11-14T22:21:35.272Z,100490.34
2022-11-14T22:24:01.846Z,100489.63
2022-11-14T22:26:28.308Z,100461.69
2022-11-14T22:28:54.856Z,100490.47
2022-11-14T22:31:23.399Z,100495.88
2022-11-14T22:33:52.122Z,100487.25
2022-11-14T22:36:21.006Z,100490.47
2022-11-14T22:38:48.719Z,100496.28
2022-11-14T22:41:24.366Z,100494.72
2022-11-14T22:43:55.056Z,100490.47
2022-11-14T22:46:22.134Z,100501.25
2022-11-14T22:48:49.695Z,100496.69
2022-11-14T22:51:18.565Z,100497.06
2022-11-14T22:53:50.674Z,100498.41
2022-11-14T22:56:18.990Z,100493.72
2022-11-14T22:58:46.071Z,100501.09
2022-11-14T23:01:18.267Z,100493.88
2022-11-14T23:03:45.258Z,100490.09
2022-11-14T23:06:14.597Z,100490.63
2022-11-14T23:08:41.545Z,100483.53
2022-11-14T23:11:12.561Z,100485.78
2022-11-14T23:13:44.669Z,100480.47
2022-11-14T23:16:12.963Z,100458.88
2022-11-14T23:18:39.952Z,100479.31
2022-11-14T23:21:12.661Z,100479.69
2022-11-14T23:23:39.167Z,100474.38
2022-11-14T23:26:08.760Z,100478.28
2022-11-14T23:28:35.967Z,100473.63
2022-11-14T23:31:02.992Z,100442.63
2022-11-14T23:33:30.235Z,100468.78
2022-11-14T23:35:56.958Z,100467.72
2022-11-14T23:38:23.555Z,100481.81
2022-11-14T23:40:53.578Z,100463.72
2022-11-14T23:43:20.393Z,100465.47
2022-11-14T23:45:48.253Z,100461.22
2022-11-14T23:48:16.130Z,100452.69
2022-11-14T23:50:43.480Z,100471.41
2022-11-14T23:53:11.073Z,100461.69
2022-11-14T23:55:38.249Z,100434.31
2022-11-14T23:58:05.004Z,100460.19
